createdAt,value
2022-07-29T00:00:02.265Z,52.70
2022-07-29T00:02:49.142Z,52.90
2022-07-29T00:05:16.262Z,52.23
2022-07-29T00:07:43.131Z,54.48
2022-07-29T00:10:10.013Z,53.98
2022-07-29T00:12:37.200Z,54.86
2022-07-29T00:15:04.978Z,53.38
2022-07-29T00:17:32.218Z,54.45
2022-07-29T00:19:59.269Z,53.63
2022-07-29T00:22:26.119Z,52.85
2022-07-29T00:24:52.887Z,52.89
2022-07-29T00:27:19.899Z,52.96
2022-07-29T00:29:46.742Z,52.95
2022-07-29T00:32:13.605Z,53.49
2022-07-29T00:34:59.216Z,53.60
2022-07-29T00:37:26.110Z,53.00
2022-07-29T00:39:53.071Z,54.20
2022-07-29T00:42:19.871Z,53.82
2022-07-29T00:44:46.649Z,54.63
2022-07-29T00:47:14.114Z,53.97
2022-07-29T00:49:42.787Z,53.61
2022-07-29T00:52:11.123Z,53.21
2022-07-29T00:54:44.246Z,53.89
2022-07-29T00:57:13.143Z,53.91
2022-07-29T00:59:40.441Z,53.57
2022-07-29T01:02:07.273Z,54.60
2022-07-29T01:04:34.507Z,54.06
2022-07-29T01:07:05.473Z,53.54
2022-07-29T01:09:43.076Z,53.56
2022-07-29T01:12:17.258Z,53.36
2022-07-29T01:14:44.581Z,53.70
2022-07-29T01:17:21.024Z,53.24
2022-07-29T01:20:07.191Z,54.88
2022-07-29T01:23:08.265Z,55.84
2022-07-29T01:26:09.340Z,54.57
2022-07-29T01:28:44.509Z,54.52
2022-07-29T01:31:24.359Z,54.32
2022-07-29T01:34:06.402Z,56.56
2022-07-29T01:36:47.989Z,56.31
2022-07-29T01:39:22.312Z,55.59
2022-07-29T01:41:59.153Z,56.19
2022-07-29T01:44:33.967Z,56.73
2022-07-29T01:47:06.091Z,55.89
2022-07-29T01:49:37.748Z,56.33
2022-07-29T01:52:08.605Z,56.05
2022-07-29T01:54:46.689Z,56.49
2022-07-29T01:57:18.416Z,56.60
2022-07-29T01:59:47.497Z,56.79
2022-07-29T02:02:17.647Z,57.08
2022-07-29T02:04:49.354Z,57.01
2022-07-29T02:07:20.437Z,57.85
2022-07-29T02:09:50.363Z,57.86
2022-07-29T02:12:20.372Z,58.54
2022-07-29T02:14:51.612Z,58.41
2022-07-29T02:17:25.924Z,57.89
2022-07-29T02:19:58.159Z,57.58
2022-07-29T02:22:27.026Z,57.52
2022-07-29T02:24:54.581Z,57.55
2022-07-29T02:27:21.726Z,57.21
2022-07-29T02:29:51.160Z,58.22
2022-07-29T02:32:19.010Z,57.92
2022-07-29T02:34:47.364Z,58.38
2022-07-29T02:37:16.981Z,59.57
2022-07-29T02:39:45.742Z,58.36
2022-07-29T02:42:15.877Z,58.83
2022-07-29T02:44:43.303Z,58.97
2022-07-29T02:47:22.152Z,59.59
2022-07-29T02:50:03.488Z,60.12
2022-07-29T02:52:36.375Z,59.84
2022-07-29T02:55:09.602Z,60.80
2022-07-29T02:57:54.457Z,61.43
2022-07-29T03:00:26.970Z,61.18
2022-07-29T03:02:57.258Z,61.11
2022-07-29T03:05:25.009Z,60.66
2022-07-29T03:08:02.042Z,61.74
2022-07-29T03:10:29.446Z,62.21
2022-07-29T03:12:57.471Z,62.90
2022-07-29T03:15:27.078Z,62.75
2022-07-29T03:17:54.745Z,62.38
2022-07-29T03:20:21.934Z,64.13
2022-07-29T03:22:48.810Z,64.71
2022-07-29T03:25:18.579Z,66.71
2022-07-29T03:27:45.965Z,66.09
2022-07-29T03:30:18.282Z,66.00
2022-07-29T03:32:49.778Z,64.39
2022-07-29T03:35:23.581Z,64.62
2022-07-29T03:37:50.575Z,64.30
2022-07-29T03:40:28.790Z,64.64
2022-07-29T03:42:57.180Z,63.93
2022-07-29T03:45:26.341Z,64.18
2022-07-29T03:48:00.991Z,64.98
2022-07-29T03:50:31.658Z,64.18
2022-07-29T03:52:59.272Z,64.69
2022-07-29T03:55:29.228Z,65.63
2022-07-29T03:57:58.016Z,64.56
2022-07-29T04:00:26.566Z,65.24
2022-07-29T04:02:53.440Z,65.47
2022-07-29T04:05:20.547Z,65.16
2022-07-29T04:07:49.337Z,64.93
2022-07-29T04:10:17.900Z,64.33
2022-07-29T04:12:57.352Z,65.49
2022-07-29T04:15:24.175Z,64.73
2022-07-29T04:17:51.117Z,64.31
2022-07-29T04:20:18.346Z,63.92
2022-07-29T04:22:45.140Z,64.43
2022-07-29T04:25:11.949Z,64.52
2022-07-29T04:27:58.855Z,64.85
2022-07-29T04:30:25.818Z,65.12
2022-07-29T04:32:53.062Z,65.36
2022-07-29T04:35:20.931Z,64.90
2022-07-29T04:37:48.115Z,64.59
2022-07-29T04:40:15.200Z,64.98
2022-07-29T04:42:46.725Z,64.94
2022-07-29T04:45:15.352Z,63.74
2022-07-29T04:47:43.222Z,63.60
2022-07-29T04:50:10.723Z,63.61
2022-07-29T04:52:38.059Z,62.80
2022-07-29T04:55:06.265Z,62.95
2022-07-29T04:57:33.365Z,62.31
2022-07-29T05:00:00.153Z,62.52
2022-07-29T05:02:27.228Z,62.13
2022-07-29T05:04:54.140Z,60.98
2022-07-29T05:07:20.889Z,60.62
2022-07-29T05:09:48.557Z,60.32
2022-07-29T05:12:15.323Z,59.57
2022-07-29T05:14:42.110Z,60.62
2022-07-29T05:17:09.068Z,60.03
2022-07-29T05:19:39.503Z,59.97
2022-07-29T05:22:07.205Z,60.07
2022-07-29T05:24:34.189Z,59.93
2022-07-29T05:27:00.985Z,58.76
2022-07-29T05:29:43.376Z,58.75
2022-07-29T05:32:12.822Z,58.11
2022-07-29T05:34:51.000Z,56.72
2022-07-29T05:37:21.908Z,56.59
2022-07-29T05:39:56.815Z,56.89
2022-07-29T05:42:27.295Z,56.25
2022-07-29T05:44:55.036Z,56.97
2022-07-29T05:47:21.892Z,57.15
2022-07-29T05:49:49.426Z,56.45
2022-07-29T05:52:16.232Z,55.60
2022-07-29T05:54:43.184Z,55.34
2022-07-29T05:57:17.113Z,54.94
2022-07-29T05:59:43.851Z,54.56
2022-07-29T06:02:10.629Z,54.95
2022-07-29T06:04:37.622Z,55.09
2022-07-29T06:07:05.437Z,54.33
2022-07-29T06:09:36.003Z,54.35
2022-07-29T06:12:04.178Z,54.30
2022-07-29T06:14:31.031Z,54.15
2022-07-29T06:16:57.774Z,53.28
2022-07-29T06:19:24.740Z,53.56
2022-07-29T06:21:51.988Z,53.90
2022-07-29T06:24:19.237Z,53.21
2022-07-29T06:26:46.496Z,51.76
2022-07-29T06:29:13.352Z,52.90
2022-07-29T06:31:40.455Z,51.69
2022-07-29T06:34:07.771Z,52.17
2022-07-29T06:36:38.313Z,51.66
2022-07-29T06:39:11.618Z,51.61
2022-07-29T06:41:39.225Z,51.92
2022-07-29T06:44:06.001Z,51.77
2022-07-29T06:46:33.685Z,50.88
2022-07-29T06:49:02.541Z,51.41
2022-07-29T06:51:29.934Z,51.81
2022-07-29T06:54:02.325Z,51.25
2022-07-29T06:56:32.541Z,50.92
2022-07-29T06:59:06.233Z,50.92
2022-07-29T07:01:33.283Z,49.28
2022-07-29T07:04:00.131Z,49.94
2022-07-29T07:06:27.090Z,48.58
2022-07-29T07:08:54.686Z,49.11
2022-07-29T07:11:21.710Z,48.44
2022-07-29T07:13:48.459Z,48.40
2022-07-29T07:16:15.499Z,48.09
2022-07-29T07:18:42.331Z,46.93
2022-07-29T07:21:11.961Z,45.97
2022-07-29T07:23:45.927Z,46.59
2022-07-29T07:26:12.742Z,46.49
2022-07-29T07:28:39.493Z,47.44
2022-07-29T07:31:06.524Z,45.68
2022-07-29T07:33:33.318Z,46.40
2022-07-29T07:36:00.318Z,45.92
2022-07-29T07:38:27.380Z,46.42
2022-07-29T07:40:54.145Z,45.16
2022-07-29T07:43:20.919Z,46.03
2022-07-29T07:45:47.946Z,45.59
2022-07-29T07:48:14.797Z,46.60
2022-07-29T07:50:41.585Z,45.95
2022-07-29T07:53:08.637Z,44.94
2022-07-29T07:56:08.868Z,44.95
2022-07-29T07:58:28.146Z,45.54
2022-07-29T08:00:54.956Z,45.50
2022-07-29T08:03:22.171Z,45.70
2022-07-29T08:05:51.581Z,44.80
2022-07-29T08:08:18.830Z,44.87
2022-07-29T08:10:54.237Z,44.40
2022-07-29T08:13:22.552Z,43.97
2022-07-29T08:15:58.471Z,44.87
2022-07-29T08:18:27.165Z,43.99
2022-07-29T08:20:54.175Z,42.25
2022-07-29T08:23:21.527Z,42.40
2022-07-29T08:25:50.244Z,44.19
2022-07-29T08:28:18.369Z,42.36
2022-07-29T08:30:45.414Z,43.84
2022-07-29T08:33:12.339Z,43.13
2022-07-29T08:35:40.414Z,44.96
2022-07-29T08:38:07.279Z,44.10
2022-07-29T08:40:34.334Z,45.36
2022-07-29T08:43:10.396Z,41.86
2022-07-29T08:45:48.023Z,41.67
2022-07-29T08:48:17.104Z,42.06
2022-07-29T08:50:46.319Z,41.94
2022-07-29T08:53:15.964Z,41.84
2022-07-29T08:55:44.727Z,42.04
2022-07-29T08:58:15.777Z,42.61
2022-07-29T09:00:46.188Z,39.20
2022-07-29T09:03:20.434Z,41.34
2022-07-29T09:05:48.419Z,38.25
2022-07-29T09:08:17.057Z,39.13
2022-07-29T09:10:44.732Z,41.67
2022-07-29T09:13:11.500Z,41.04
2022-07-29T09:15:38.500Z,37.12
2022-07-29T09:18:05.282Z,35.88
2022-07-29T09:20:50.563Z,37.70
2022-07-29T09:23:23.244Z,37.24
2022-07-29T09:25:51.534Z,35.10
2022-07-29T09:28:19.045Z,34.43
2022-07-29T09:30:53.685Z,31.88
2022-07-29T09:33:22.114Z,31.46
2022-07-29T09:36:01.923Z,32.01
2022-07-29T09:38:29.894Z,32.03
2022-07-29T09:41:06.394Z,32.69
2022-07-29T09:43:34.949Z,30.61
2022-07-29T09:46:15.061Z,29.75
2022-07-29T09:48:42.265Z,28.96
2022-07-29T09:51:27.060Z,28.84
2022-07-29T09:54:26.768Z,28.59
2022-07-29T09:56:54.767Z,28.68
2022-07-29T09:59:25.291Z,30.22
2022-07-29T10:01:52.431Z,28.53
2022-07-29T10:04:20.213Z,29.09
2022-07-29T10:07:03.777Z,29.27
2022-07-29T10:09:31.653Z,29.14
2022-07-29T10:12:10.025Z,29.98
2022-07-29T10:14:37.716Z,28.63
2022-07-29T10:17:06.933Z,29.90
2022-07-29T10:19:36.118Z,31.62
2022-07-29T10:22:06.126Z,30.05
2022-07-29T10:24:33.911Z,27.62
2022-07-29T10:27:03.432Z,28.15
2022-07-29T10:29:32.356Z,28.93
2022-07-29T10:32:05.665Z,28.15
2022-07-29T10:35:02.561Z,28.98
2022-07-29T10:37:47.938Z,29.37
2022-07-29T10:40:45.613Z,30.05
2022-07-29T10:43:33.772Z,30.45
2022-07-29T10:46:02.152Z,29.57
2022-07-29T10:48:30.089Z,29.61
2022-07-29T10:51:04.976Z,30.63
2022-07-29T10:53:54.098Z,29.59
2022-07-29T10:56:38.921Z,29.28
2022-07-29T10:59:21.732Z,30.13
2022-07-29T11:02:06.244Z,29.64
2022-07-29T11:04:44.464Z,28.70
2022-07-29T11:07:12.228Z,28.91
2022-07-29T11:09:39.868Z,27.64
2022-07-29T11:12:37.717Z,27.53
2022-07-29T11:15:09.663Z,27.09
2022-07-29T11:17:54.804Z,26.59
2022-07-29T11:20:37.896Z,26.76
2022-07-29T11:23:36.557Z,24.91
2022-07-29T11:26:10.844Z,26.13
2022-07-29T11:29:04.264Z,25.21
2022-07-29T11:31:37.726Z,25.74
2022-07-29T11:34:30.272Z,25.47
2022-07-29T11:37:12.588Z,24.90
2022-07-29T11:40:08.402Z,25.48
2022-07-29T11:42:41.747Z,25.51
2022-07-29T11:45:42.593Z,25.29
2022-07-29T11:48:27.585Z,24.95
2022-07-29T11:50:48.384Z,24.25
2022-07-29T11:53:16.131Z,23.89
2022-07-29T11:55:50.975Z,23.40
2022-07-29T11:58:26.219Z,23.46
2022-07-29T12:00:55.330Z,24.20
2022-07-29T12:06:18.038Z,26.30
2022-07-29T12:08:45.962Z,26.51
2022-07-29T12:11:22.658Z,25.97
2022-07-29T12:13:51.969Z,24.85
2022-07-29T12:16:26.020Z,24.78
2022-07-29T12:19:02.015Z,25.01
2022-07-29T12:21:56.488Z,24.66
2022-07-29T12:24:26.865Z,22.76
2022-07-29T12:27:01.123Z,23.94
2022-07-29T12:29:33.750Z,23.12
2022-07-29T12:32:03.287Z,22.79
2022-07-29T12:34:30.945Z,22.40
2022-07-29T12:36:57.956Z,22.50
2022-07-29T12:39:27.488Z,23.48
2022-07-29T12:42:04.709Z,22.96
2022-07-29T12:44:49.363Z,21.84
2022-07-29T12:47:17.313Z,21.82
2022-07-29T12:49:44.091Z,21.51
2022-07-29T12:52:28.894Z,21.33
2022-07-29T12:54:56.286Z,21.20
2022-07-29T12:57:23.332Z,22.74
2022-07-29T13:00:14.224Z,23.33
2022-07-29T13:02:42.651Z,22.91
2022-07-29T13:05:11.304Z,22.84
2022-07-29T13:07:53.944Z,22.82
2022-07-29T13:10:24.379Z,22.54
2022-07-29T13:13:15.935Z,22.78
2022-07-29T13:15:45.099Z,23.42
2022-07-29T13:18:31.673Z,22.98
2022-07-29T13:21:12.002Z,22.52
2022-07-29T13:23:39.117Z,21.73
2022-07-29T13:26:10.472Z,21.44
2022-07-29T13:28:37.325Z,22.08
2022-07-29T13:31:05.627Z,21.46
2022-07-29T13:33:32.747Z,21.96
2022-07-29T13:35:59.524Z,22.31
2022-07-29T13:38:30.896Z,21.47
2022-07-29T13:40:58.818Z,21.84
2022-07-29T13:43:25.600Z,22.06
2022-07-29T13:45:53.085Z,21.26
2022-07-29T13:48:20.165Z,22.88
2022-07-29T13:50:47.657Z,23.76
2022-07-29T13:53:17.943Z,24.07
2022-07-29T13:55:45.979Z,25.20
2022-07-29T13:58:12.772Z,24.73
2022-07-29T14:00:39.554Z,24.13
2022-07-29T14:03:07.427Z,23.66
2022-07-29T14:05:34.299Z,22.24
2022-07-29T14:08:01.067Z,21.49
2022-07-29T14:10:28.152Z,22.07
2022-07-29T14:12:54.897Z,22.06
2022-07-29T14:15:21.868Z,22.86
2022-07-29T14:17:48.836Z,21.79
2022-07-29T14:20:16.636Z,21.48
2022-07-29T14:22:44.915Z,20.80
2022-07-29T14:25:14.423Z,20.97
2022-07-29T14:27:44.304Z,20.10
2022-07-29T14:30:11.750Z,19.95
2022-07-29T14:32:38.771Z,20.08
2022-07-29T14:35:06.823Z,19.48
2022-07-29T14:37:39.940Z,21.73
2022-07-29T14:40:08.998Z,21.84
2022-07-29T14:42:37.094Z,20.48
2022-07-29T14:45:05.766Z,20.51
2022-07-29T14:47:32.771Z,20.54
2022-07-29T14:50:00.736Z,19.87
2022-07-29T14:52:27.467Z,19.28
2022-07-29T14:54:54.588Z,19.04
2022-07-29T14:57:21.339Z,19.37
2022-07-29T14:59:48.144Z,18.73
2022-07-29T15:02:15.166Z,19.88
2022-07-29T15:04:42.008Z,19.79
2022-07-29T15:07:09.404Z,21.09
2022-07-29T15:09:40.276Z,20.99
2022-07-29T15:12:16.593Z,20.44
2022-07-29T15:14:43.606Z,20.28
2022-07-29T15:17:10.521Z,20.02
2022-07-29T15:19:37.350Z,19.63
2022-07-29T15:22:06.425Z,19.43
2022-07-29T15:24:33.455Z,18.49
2022-07-29T15:27:00.194Z,18.51
2022-07-29T15:29:27.140Z,18.27
2022-07-29T15:31:54.126Z,17.21
2022-07-29T15:34:21.740Z,16.49
2022-07-29T15:36:52.405Z,17.07
2022-07-29T15:39:20.952Z,18.08
2022-07-29T15:41:47.746Z,18.79
2022-07-29T15:44:14.739Z,17.84
2022-07-29T15:47:01.017Z,16.65
2022-07-29T15:49:48.308Z,16.91
2022-07-29T15:52:24.760Z,16.70
2022-07-29T15:54:52.499Z,18.38
2022-07-29T15:57:19.377Z,18.63
2022-07-29T15:59:46.111Z,17.68
2022-07-29T16:02:17.762Z,17.30
2022-07-29T16:04:44.722Z,17.36
2022-07-29T16:07:11.625Z,18.66
2022-07-29T16:09:38.660Z,20.22
2022-07-29T16:12:14.604Z,21.36
2022-07-29T16:14:43.400Z,21.09
2022-07-29T16:17:10.208Z,22.17
2022-07-29T16:19:41.680Z,23.57
2022-07-29T16:22:08.641Z,24.34
2022-07-29T16:24:35.408Z,25.19
2022-07-29T16:27:02.344Z,23.60
2022-07-29T16:29:29.433Z,24.12
2022-07-29T16:31:57.061Z,23.23
2022-07-29T16:34:23.897Z,23.91
2022-07-29T16:36:51.061Z,23.24
2022-07-29T16:39:17.810Z,22.86
2022-07-29T16:41:44.692Z,23.04
2022-07-29T16:44:11.677Z,22.51
2022-07-29T16:46:39.024Z,21.35
2022-07-29T16:49:08.380Z,20.87
2022-07-29T16:51:35.423Z,20.42
2022-07-29T16:54:02.157Z,20.09
2022-07-29T16:56:28.890Z,19.21
2022-07-29T16:58:58.046Z,18.62
2022-07-29T17:01:24.853Z,18.63
2022-07-29T17:04:06.641Z,19.26
2022-07-29T17:06:39.873Z,19.85
2022-07-29T17:09:07.934Z,22.58
2022-07-29T17:11:51.560Z,19.10
2022-07-29T17:14:25.231Z,18.88
2022-07-29T17:17:01.299Z,19.73
2022-07-29T17:19:30.604Z,21.36
2022-07-29T17:22:06.338Z,22.53
2022-07-29T17:24:35.955Z,23.90
2022-07-29T17:27:02.981Z,24.05
2022-07-29T17:29:29.717Z,25.45
2022-07-29T17:31:57.730Z,26.22
2022-07-29T17:34:24.753Z,27.97
2022-07-29T17:36:51.551Z,26.42
2022-07-29T17:39:18.403Z,29.17
2022-07-29T17:41:46.860Z,28.04
2022-07-29T17:44:13.660Z,28.03
2022-07-29T17:46:40.688Z,28.09
2022-07-29T17:49:07.774Z,29.68
2022-07-29T17:51:34.666Z,29.51
2022-07-29T17:54:01.463Z,28.95
2022-07-29T17:56:28.440Z,29.36
2022-07-29T17:58:55.298Z,28.98
2022-07-29T18:01:23.699Z,28.83
2022-07-29T18:03:50.730Z,29.78
2022-07-29T18:06:17.517Z,30.36
2022-07-29T18:08:47.497Z,30.68
2022-07-29T18:11:15.447Z,30.16
2022-07-29T18:13:42.412Z,30.11
2022-07-29T18:16:09.476Z,31.37
2022-07-29T18:18:36.611Z,32.18
2022-07-29T18:21:03.981Z,32.65
2022-07-29T18:23:31.330Z,32.93
2022-07-29T18:25:58.441Z,32.79
2022-07-29T18:28:25.214Z,35.13
2022-07-29T18:30:53.067Z,35.08
2022-07-29T18:33:22.057Z,35.46
2022-07-29T18:35:51.595Z,34.54
2022-07-29T18:38:19.278Z,34.00
2022-07-29T18:40:48.726Z,36.07
2022-07-29T18:43:15.640Z,37.78
2022-07-29T18:45:42.777Z,37.73
2022-07-29T18:48:12.868Z,37.07
2022-07-29T18:50:41.323Z,36.52
2022-07-29T18:53:08.610Z,36.72
2022-07-29T18:55:35.588Z,36.44
2022-07-29T18:58:02.346Z,41.21
2022-07-29T19:00:30.502Z,41.91
2022-07-29T19:02:57.597Z,40.23
2022-07-29T19:05:24.802Z,41.04
2022-07-29T19:07:51.732Z,40.21
2022-07-29T19:10:18.819Z,40.91
2022-07-29T19:12:45.694Z,40.60
2022-07-29T19:15:12.554Z,40.85
2022-07-29T19:17:47.952Z,41.26
2022-07-29T19:20:14.769Z,41.46
2022-07-29T19:22:41.807Z,41.54
2022-07-29T19:25:09.918Z,41.28
2022-07-29T19:27:37.091Z,41.45
2022-07-29T19:30:07.007Z,41.86
2022-07-29T19:32:33.959Z,41.97
2022-07-29T19:35:19.372Z,42.17
2022-07-29T19:37:46.346Z,42.02
2022-07-29T19:40:13.460Z,42.33
2022-07-29T19:42:40.236Z,42.70
2022-07-29T19:45:07.671Z,43.14
2022-07-29T19:47:34.644Z,42.78
2022-07-29T19:50:01.912Z,43.40
2022-07-29T19:52:28.968Z,43.51
2022-07-29T19:54:55.855Z,43.89
2022-07-29T19:57:22.729Z,44.07
2022-07-29T19:59:51.213Z,43.99
2022-07-29T20:02:18.084Z,44.83
2022-07-29T20:04:45.177Z,44.93
2022-07-29T20:07:13.091Z,44.78
2022-07-29T20:09:41.323Z,44.97
2022-07-29T20:12:11.674Z,45.15
2022-07-29T20:14:38.768Z,45.36
2022-07-29T20:17:05.684Z,45.80
2022-07-29T20:19:33.307Z,45.88
2022-07-29T20:22:00.776Z,46.18
2022-07-29T20:24:27.643Z,46.36
2022-07-29T20:26:54.509Z,46.67
2022-07-29T20:29:22.100Z,46.51
2022-07-29T20:31:52.948Z,46.68
2022-07-29T20:34:23.722Z,46.64
2022-07-29T20:36:50.556Z,47.12
2022-07-29T20:39:17.348Z,47.16
2022-07-29T20:41:44.495Z,47.66
2022-07-29T20:44:11.290Z,47.74
2022-07-29T20:46:39.359Z,48.05
2022-07-29T20:49:07.426Z,47.75
2022-07-29T20:51:43.586Z,47.55
2022-07-29T20:54:11.750Z,47.54
2022-07-29T20:56:39.304Z,48.19
2022-07-29T20:59:06.046Z,48.13
2022-07-29T21:01:33.176Z,48.49
2022-07-29T21:04:01.344Z,48.43
2022-07-29T21:06:28.196Z,48.96
2022-07-29T21:08:57.883Z,49.90
2022-07-29T21:11:44.495Z,49.62
2022-07-29T21:14:23.191Z,50.74
2022-07-29T21:16:50.315Z,51.03
2022-07-29T21:19:17.392Z,50.95
2022-07-29T21:21:44.136Z,51.16
2022-07-29T21:24:12.222Z,52.21
2022-07-29T21:26:39.381Z,53.50
2022-07-29T21:29:06.152Z,52.96
2022-07-29T21:31:32.939Z,53.30
2022-07-29T21:33:59.885Z,53.40
2022-07-29T21:36:47.905Z,53.72
2022-07-29T21:39:13.580Z,53.91
2022-07-29T21:41:40.324Z,54.41
2022-07-29T21:44:07.068Z,54.93
2022-07-29T21:46:34.039Z,55.79
2022-07-29T21:49:00.870Z,55.44
2022-07-29T21:51:27.653Z,56.33
2022-07-29T21:53:54.631Z,57.19
2022-07-29T21:56:24.521Z,57.82
2022-07-29T21:58:54.379Z,58.25
2022-07-29T22:01:21.455Z,58.10
2022-07-29T22:03:48.248Z,58.68
2022-07-29T22:06:17.300Z,59.39
2022-07-29T22:08:46.051Z,59.60
2022-07-29T22:11:13.292Z,59.10
2022-07-29T22:13:40.179Z,59.10
2022-07-29T22:16:07.506Z,60.02
2022-07-29T22:18:34.232Z,59.77
2022-07-29T22:21:01.039Z,59.84
2022-07-29T22:23:27.952Z,60.13
2022-07-29T22:25:54.717Z,60.28
2022-07-29T22:28:21.510Z,60.57
2022-07-29T22:30:48.575Z,60.51
2022-07-29T22:33:17.455Z,60.99
2022-07-29T22:35:45.307Z,61.81
2022-07-29T22:38:18.801Z,61.71
2022-07-29T22:40:46.899Z,61.35
2022-07-29T22:43:15.597Z,62.05
2022-07-29T22:45:42.630Z,62.15
2022-07-29T22:48:10.529Z,62.53
2022-07-29T22:50:38.272Z,62.23
2022-07-29T22:53:05.217Z,62.05
2022-07-29T22:55:31.955Z,62.12
2022-07-29T22:57:58.703Z,62.36
2022-07-29T23:00:25.812Z,62.81
2022-07-29T23:02:52.603Z,62.77
2022-07-29T23:05:19.591Z,63.11
2022-07-29T23:07:46.538Z,63.61
2022-07-29T23:10:13.291Z,63.82
2022-07-29T23:12:40.047Z,63.91
2022-07-29T23:15:07.817Z,64.07
2022-07-29T23:17:36.344Z,63.74
2022-07-29T23:20:08.899Z,63.85
2022-07-29T23:22:37.122Z,64.48
2022-07-29T23:25:05.010Z,64.11
2022-07-29T23:27:31.937Z,64.08
2022-07-29T23:29:59.149Z,64.10
2022-07-29T23:32:25.876Z,64.76
2022-07-29T23:34:52.621Z,64.86
2022-07-29T23:37:19.877Z,64.90
2022-07-29T23:39:46.679Z,65.30
2022-07-29T23:42:13.573Z,65.59
2022-07-29T23:44:40.527Z,66.24
2022-07-29T23:47:07.266Z,65.57
2022-07-29T23:49:34.468Z,65.76
2022-07-29T23:52:01.408Z,65.91
2022-07-29T23:54:28.173Z,66.05
2022-07-29T23:56:57.568Z,66.62
2022-07-29T23:59:25.221Z,67.09
